createdAt,value
2022-10-07T00:00:51.240Z,102025.88
2022-10-07T00:03:18.461Z,102037.31
2022-10-07T00:05:45.360Z,102054.34
2022-10-07T00:08:12.143Z,102014.31
2022-10-07T00:10:43.103Z,102060.50
2022-10-07T00:13:12.056Z,102062.94
2022-10-07T00:15:39.244Z,102058.78
2022-10-07T00:18:05.985Z,102048.16
2022-10-07T00:20:39.535Z,102050.06
2022-10-07T00:23:07.806Z,102049.44
2022-10-07T00:25:37.808Z,102022.50
2022-10-07T00:28:05.234Z,102016.31
2022-10-07T00:30:32.059Z,102035.16
2022-10-07T00:32:58.639Z,102035.69
2022-10-07T00:35:25.200Z,102033.78
2022-10-07T00:37:52.169Z,102029.78
2022-10-07T00:40:18.885Z,102022.59
2022-10-07T00:42:45.355Z,102024.56
2022-10-07T00:45:16.206Z,102029.53
2022-10-07T00:47:48.379Z,102012.00
2022-10-07T00:50:19.468Z,102025.03
2022-10-07T00:52:50.771Z,101959.41
2022-10-07T00:55:20.475Z,101977.34
2022-10-07T00:57:47.967Z,102009.03
2022-10-07T01:00:14.621Z,101993.66
2022-10-07T01:02:41.314Z,101941.63
2022-10-07T01:05:09.765Z,101945.56
2022-10-07T01:07:37.167Z,101977.03
2022-10-07T01:10:05.326Z,101958.56
2022-10-07T01:12:59.420Z,101941.63
2022-10-07T01:15:38.619Z,101987.81
2022-10-07T01:18:29.520Z,101986.53
2022-10-07T01:20:58.996Z,101981.50
2022-10-07T01:24:03.396Z,101978.84
2022-10-07T01:26:48.967Z,101944.91
2022-10-07T01:29:27.316Z,101957.63
2022-10-07T01:32:06.789Z,101962.00
2022-10-07T01:34:34.777Z,101978.72
2022-10-07T01:37:02.939Z,101962.78
2022-10-07T01:39:34.541Z,101965.41
2022-10-07T01:42:01.740Z,101914.00
2022-10-07T01:44:29.951Z,101919.41
2022-10-07T01:46:57.061Z,101925.06
2022-10-07T01:49:23.858Z,101946.22
2022-10-07T01:52:12.154Z,101955.59
2022-10-07T01:55:03.691Z,101957.75
2022-10-07T01:57:59.323Z,101904.75
2022-10-07T02:00:25.812Z,101893.75
2022-10-07T02:02:58.661Z,101947.03
2022-10-07T02:06:07.102Z,101941.19
2022-10-07T02:08:45.667Z,101939.06
2022-10-07T02:11:15.539Z,101874.38
2022-10-07T02:14:00.992Z,101927.00
2022-10-07T02:16:33.725Z,101890.53
2022-10-07T02:19:03.698Z,101902.50
2022-10-07T02:21:31.871Z,101919.78
2022-10-07T02:23:58.877Z,101913.50
2022-10-07T02:26:27.559Z,101887.13
2022-10-07T02:28:54.435Z,101907.53
2022-10-07T02:31:24.554Z,101907.63
2022-10-07T02:33:53.955Z,101895.75
2022-10-07T02:36:25.211Z,101887.66
2022-10-07T02:38:52.500Z,101825.19
2022-10-07T02:41:33.794Z,101887.03
2022-10-07T02:44:16.730Z,101876.91
2022-10-07T02:46:53.597Z,101875.72
2022-10-07T02:49:21.846Z,101858.47
2022-10-07T02:51:54.757Z,101884.34
2022-10-07T02:54:24.975Z,101859.84
2022-10-07T02:56:52.044Z,101817.66
2022-10-07T02:59:19.179Z,101878.81
2022-10-07T03:01:47.909Z,101859.44
2022-10-07T03:04:14.598Z,101859.72
2022-10-07T03:06:42.890Z,101859.69
2022-10-07T03:09:09.720Z,101854.94
2022-10-07T03:11:38.538Z,101870.19
2022-10-07T03:14:05.753Z,101860.28
2022-10-07T03:16:32.680Z,101865.47
2022-10-07T03:18:59.450Z,101859.63
2022-10-07T03:21:25.909Z,101830.63
2022-10-07T03:23:53.290Z,101851.22
2022-10-07T03:26:19.819Z,101860.44
2022-10-07T03:28:46.797Z,101860.72
2022-10-07T03:31:15.490Z,101853.59
2022-10-07T03:33:42.543Z,101844.44
2022-10-07T03:36:09.378Z,101825.59
2022-10-07T03:38:36.006Z,101853.66
2022-10-07T03:41:04.427Z,101849.56
2022-10-07T03:43:31.377Z,101850.69
2022-10-07T03:45:58.368Z,101772.22
2022-10-07T03:48:24.902Z,101790.81
2022-10-07T03:50:53.140Z,101840.88
2022-10-07T03:53:20.167Z,101845.06
2022-10-07T03:55:46.643Z,101847.81
2022-10-07T03:58:13.351Z,101843.97
2022-10-07T04:00:41.231Z,101842.16
2022-10-07T04:03:08.694Z,101824.47
2022-10-07T04:05:36.288Z,101837.03
2022-10-07T04:08:04.789Z,101833.53
2022-10-07T04:10:31.567Z,101835.03
2022-10-07T04:12:58.056Z,101796.53
2022-10-07T04:15:24.665Z,101830.34
2022-10-07T04:17:58.361Z,101811.78
2022-10-07T04:20:26.015Z,101805.09
2022-10-07T04:22:52.505Z,101808.47
2022-10-07T04:25:38.538Z,101823.84
2022-10-07T04:28:16.725Z,101828.19
2022-10-07T04:30:44.107Z,101825.41
2022-10-07T04:33:11.510Z,101821.25
2022-10-07T04:35:39.659Z,101821.59
2022-10-07T04:38:09.460Z,101816.16
2022-10-07T04:40:39.882Z,101828.84
2022-10-07T04:43:26.860Z,101777.59
2022-10-07T04:45:55.043Z,101819.34
2022-10-07T04:48:23.601Z,101774.44
2022-10-07T04:50:52.197Z,101810.47
2022-10-07T04:53:19.947Z,101777.50
2022-10-07T04:55:51.755Z,101804.09
2022-10-07T04:58:19.301Z,101805.97
2022-10-07T05:00:48.640Z,101807.63
2022-10-07T05:03:16.970Z,101757.59
2022-10-07T05:05:45.077Z,101805.09
2022-10-07T05:08:12.993Z,101671.91
2022-10-07T05:10:40.064Z,101787.25
2022-10-07T05:13:09.418Z,101783.19
2022-10-07T05:15:35.908Z,101804.53
2022-10-07T05:18:02.760Z,101797.06
2022-10-07T05:20:29.389Z,101787.59
2022-10-07T05:22:56.269Z,101734.28
2022-10-07T05:25:22.808Z,101780.91
2022-10-07T05:27:54.154Z,101750.50
2022-10-07T05:30:21.009Z,101753.91
2022-10-07T05:32:47.755Z,101785.47
2022-10-07T05:35:14.948Z,101784.59
2022-10-07T05:37:41.509Z,101724.91
2022-10-07T05:40:08.495Z,101769.50
2022-10-07T05:42:34.975Z,101769.50
2022-10-07T05:45:05.261Z,101788.34
2022-10-07T05:47:33.908Z,101712.50
2022-10-07T05:50:00.542Z,101733.69
2022-10-07T05:52:27.369Z,101762.53
2022-10-07T05:54:53.904Z,101732.56
2022-10-07T05:57:20.700Z,101767.94
2022-10-07T05:59:47.157Z,101741.13
2022-10-07T06:02:15.112Z,101748.75
2022-10-07T06:04:44.597Z,101757.09
2022-10-07T06:07:11.235Z,101757.31
2022-10-07T06:09:56.298Z,101732.97
2022-10-07T06:12:41.322Z,101726.97
2022-10-07T06:15:10.689Z,101752.28
2022-10-07T06:17:42.418Z,101751.06
2022-10-07T06:20:10.202Z,101736.06
2022-10-07T06:22:36.787Z,101755.72
2022-10-07T06:25:03.749Z,101752.19
2022-10-07T06:27:30.296Z,101720.19
2022-10-07T06:29:56.784Z,101741.06
2022-10-07T06:32:23.420Z,101749.06
2022-10-07T06:34:50.044Z,101712.50
2022-10-07T06:37:16.544Z,101757.97
2022-10-07T06:39:43.030Z,101735.81
2022-10-07T06:42:09.571Z,101747.72
2022-10-07T06:44:36.041Z,101749.44
2022-10-07T06:47:02.511Z,101733.03
2022-10-07T06:49:29.069Z,101704.94
2022-10-07T06:51:56.002Z,101733.47
2022-10-07T06:54:22.617Z,101708.66
2022-10-07T06:56:49.087Z,101699.00
2022-10-07T06:59:15.512Z,101731.50
2022-10-07T07:01:42.094Z,101755.47
2022-10-07T07:04:08.654Z,101752.75
2022-10-07T07:06:38.426Z,101754.50
2022-10-07T07:09:05.368Z,101691.88
2022-10-07T07:11:38.151Z,101758.31
2022-10-07T07:14:05.654Z,101757.59
2022-10-07T07:16:32.688Z,101761.81
2022-10-07T07:19:05.141Z,101764.38
2022-10-07T07:21:33.514Z,101761.94
2022-10-07T07:24:00.287Z,101755.22
2022-10-07T07:26:28.486Z,101764.13
2022-10-07T07:29:00.522Z,101740.44
2022-10-07T07:31:29.033Z,101735.56
2022-10-07T07:33:59.560Z,101737.59
2022-10-07T07:36:26.702Z,101725.59
2022-10-07T07:38:55.694Z,101758.31
2022-10-07T07:41:26.274Z,101748.63
2022-10-07T07:43:54.778Z,101727.75
2022-10-07T07:46:23.725Z,101741.84
2022-10-07T07:48:51.837Z,101695.00
2022-10-07T07:51:18.969Z,101744.81
2022-10-07T07:53:45.935Z,101742.88
2022-10-07T07:56:12.640Z,101711.66
2022-10-07T07:58:39.668Z,101722.03
2022-10-07T08:01:09.614Z,101737.25
2022-10-07T08:03:37.393Z,101720.47
2022-10-07T08:06:07.552Z,101735.78
2022-10-07T08:08:34.843Z,101732.50
2022-10-07T08:11:15.831Z,101722.56
2022-10-07T08:13:43.018Z,101736.53
2022-10-07T08:16:13.109Z,101730.41
2022-10-07T08:18:45.844Z,101732.06
2022-10-07T08:21:12.663Z,101700.03
2022-10-07T08:23:39.833Z,101724.00
2022-10-07T08:26:08.452Z,101733.22
2022-10-07T08:28:36.132Z,101725.03
2022-10-07T08:31:11.839Z,101719.81
2022-10-07T08:33:40.650Z,101718.94
2022-10-07T08:36:10.683Z,101727.25
2022-10-07T08:38:38.571Z,101721.75
2022-10-07T08:41:32.670Z,101716.38
2022-10-07T08:44:17.935Z,101715.81
2022-10-07T08:47:09.893Z,101719.09
2022-10-07T08:49:48.290Z,101697.50
2022-10-07T08:52:27.501Z,101702.78
2022-10-07T08:54:54.062Z,101686.75
2022-10-07T08:57:33.669Z,101692.09
2022-10-07T09:00:03.679Z,101697.50
2022-10-07T09:03:07.449Z,101683.63
2022-10-07T09:05:39.002Z,101689.03
2022-10-07T09:08:12.947Z,101688.88
2022-10-07T09:10:42.931Z,101689.00
2022-10-07T09:13:17.803Z,101687.56
2022-10-07T09:16:05.979Z,101683.56
2022-10-07T09:18:54.011Z,101637.75
2022-10-07T09:21:25.491Z,101659.28
2022-10-07T09:23:57.165Z,101681.19
2022-10-07T09:26:26.386Z,101639.66
2022-10-07T09:28:53.269Z,101667.72
2022-10-07T09:31:21.411Z,101669.09
2022-10-07T09:33:50.473Z,101667.19
2022-10-07T09:36:20.101Z,101620.72
2022-10-07T09:38:49.413Z,101644.88
2022-10-07T09:41:36.000Z,101614.06
2022-10-07T09:44:06.411Z,101631.88
2022-10-07T09:46:46.580Z,101630.09
2022-10-07T09:49:28.455Z,101617.59
2022-10-07T09:52:04.480Z,101600.28
2022-10-07T09:54:33.011Z,101605.53
2022-10-07T09:57:01.994Z,101612.47
2022-10-07T09:59:33.715Z,101622.44
2022-10-07T10:02:22.909Z,101622.25
2022-10-07T10:04:52.465Z,101622.59
2022-10-07T10:07:28.359Z,101627.06
2022-10-07T10:09:57.653Z,101606.75
2022-10-07T10:12:25.264Z,101595.88
2022-10-07T10:14:52.842Z,101592.75
2022-10-07T10:17:30.406Z,101597.94
2022-10-07T10:20:43.356Z,101596.28
2022-10-07T10:23:29.697Z,101593.78
2022-10-07T10:26:32.444Z,101574.00
2022-10-07T10:29:37.879Z,101579.44
2022-10-07T10:32:25.814Z,101567.59
2022-10-07T10:35:19.962Z,101572.09
2022-10-07T10:38:28.068Z,101572.22
2022-10-07T10:41:11.742Z,101562.44
2022-10-07T10:43:58.446Z,101557.72
2022-10-07T10:46:36.969Z,101552.41
2022-10-07T10:49:12.754Z,101563.50
2022-10-07T10:51:48.177Z,101553.66
2022-10-07T10:54:46.958Z,101547.38
2022-10-07T10:57:24.036Z,101536.66
2022-10-07T10:59:55.263Z,101523.72
2022-10-07T11:02:36.833Z,101533.75
2022-10-07T11:05:14.222Z,101519.50
2022-10-07T11:07:46.064Z,101519.56
2022-10-07T11:10:35.125Z,101508.66
2022-10-07T11:13:27.980Z,101499.97
2022-10-07T11:16:06.407Z,101502.03
2022-10-07T11:18:47.193Z,101491.44
2022-10-07T11:21:19.182Z,101487.16
2022-10-07T11:24:18.191Z,101470.91
2022-10-07T11:26:47.766Z,101477.31
2022-10-07T11:29:26.742Z,101488.53
2022-10-07T11:32:05.551Z,101460.03
2022-10-07T11:34:42.331Z,101461.16
2022-10-07T11:37:20.252Z,101461.53
2022-10-07T11:39:47.248Z,101453.63
2022-10-07T11:42:17.464Z,101454.56
2022-10-07T11:44:43.850Z,101432.56
2022-10-07T11:47:13.877Z,101446.78
2022-10-07T11:49:45.226Z,101430.78
2022-10-07T11:52:26.646Z,101438.78
2022-10-07T11:55:07.053Z,101428.84
2022-10-07T11:57:39.067Z,101425.94
2022-10-07T12:00:08.113Z,101415.75
2022-10-07T12:02:46.463Z,101418.72
2022-10-07T12:05:35.993Z,101400.19
2022-10-07T12:08:34.767Z,101386.66
2022-10-07T12:11:33.634Z,101396.88
2022-10-07T12:14:28.775Z,101381.31
2022-10-07T12:16:55.534Z,101378.31
2022-10-07T12:19:24.053Z,101361.91
2022-10-07T12:22:00.202Z,101383.00
2022-10-07T12:24:28.087Z,101371.03
2022-10-07T12:27:16.320Z,101380.22
2022-10-07T12:29:50.045Z,101355.91
2022-10-07T12:32:46.738Z,101380.00
2022-10-07T12:35:40.728Z,101371.81
2022-10-07T12:38:10.216Z,101364.53
2022-10-07T12:40:38.011Z,101366.25
2022-10-07T12:43:19.712Z,101357.38
2022-10-07T12:45:46.588Z,101351.72
2022-10-07T12:48:21.010Z,101341.22
2022-10-07T12:50:50.721Z,101346.59
2022-10-07T12:53:19.129Z,101307.19
2022-10-07T12:55:51.706Z,101347.00
2022-10-07T12:58:36.723Z,101341.47
2022-10-07T13:01:26.559Z,101342.59
2022-10-07T13:04:16.614Z,101323.97
2022-10-07T13:06:58.887Z,101323.84
2022-10-07T13:09:44.532Z,101319.97
2022-10-07T13:12:29.058Z,101318.06
2022-10-07T13:15:22.941Z,101294.97
2022-10-07T13:17:49.593Z,101307.78
2022-10-07T13:20:36.005Z,101310.72
2022-10-07T13:23:07.265Z,101302.69
2022-10-07T13:25:34.880Z,101288.34
2022-10-07T13:28:01.413Z,101288.19
2022-10-07T13:30:32.586Z,101290.53
2022-10-07T13:33:22.097Z,101278.47
2022-10-07T13:35:49.838Z,101255.47
2022-10-07T13:38:24.677Z,101230.78
2022-10-07T13:41:05.092Z,101268.63
2022-10-07T13:43:32.971Z,101270.38
2022-10-07T13:46:01.336Z,101267.31
2022-10-07T13:48:31.177Z,101266.69
2022-10-07T13:50:59.241Z,101269.97
2022-10-07T13:53:31.806Z,101242.81
2022-10-07T13:56:17.825Z,101238.75
2022-10-07T13:58:44.498Z,101259.13
2022-10-07T14:01:11.213Z,101245.50
2022-10-07T14:04:20.685Z,101201.19
2022-10-07T14:07:12.588Z,101238.75
2022-10-07T14:09:50.500Z,101230.91
2022-10-07T14:12:25.161Z,101214.50
2022-10-07T14:14:55.976Z,101223.06
2022-10-07T14:17:23.221Z,101231.09
2022-10-07T14:19:52.890Z,101221.97
2022-10-07T14:22:27.790Z,101181.50
2022-10-07T14:24:58.115Z,101211.28
2022-10-07T14:28:13.785Z,101200.63
2022-10-07T14:30:59.945Z,101195.03
2022-10-07T14:33:48.245Z,101191.28
2022-10-07T14:36:19.903Z,101196.34
2022-10-07T14:38:48.362Z,101190.03
2022-10-07T14:41:16.322Z,101189.50
2022-10-07T14:43:47.556Z,101185.03
2022-10-07T14:46:22.800Z,101182.84
2022-10-07T14:48:50.017Z,101148.47
2022-10-07T14:51:19.068Z,101186.47
2022-10-07T14:53:49.117Z,101175.53
2022-10-07T14:56:22.798Z,101155.81
2022-10-07T14:58:49.373Z,101137.84
2022-10-07T15:01:16.570Z,101147.69
2022-10-07T15:03:43.071Z,101163.84
2022-10-07T15:06:09.704Z,101162.94
2022-10-07T15:08:36.233Z,101158.28
2022-10-07T15:11:05.501Z,101155.69
2022-10-07T15:13:32.643Z,101116.63
2022-10-07T15:15:59.162Z,101154.13
2022-10-07T15:18:25.624Z,101143.28
2022-10-07T15:20:56.821Z,101105.09
2022-10-07T15:23:23.940Z,101143.75
2022-10-07T15:25:51.880Z,101145.81
2022-10-07T15:28:18.432Z,101130.19
2022-10-07T15:30:45.162Z,101132.66
2022-10-07T15:33:13.111Z,101140.69
2022-10-07T15:35:39.582Z,101131.13
2022-10-07T15:38:06.358Z,101132.22
2022-10-07T15:40:32.931Z,101128.09
2022-10-07T15:43:00.890Z,101075.38
2022-10-07T15:45:27.311Z,101117.66
2022-10-07T15:47:59.554Z,101109.50
2022-10-07T15:50:27.570Z,101076.59
2022-10-07T15:52:54.729Z,101049.06
2022-10-07T15:55:21.207Z,101094.78
2022-10-07T15:57:47.839Z,101107.13
2022-10-07T16:00:15.216Z,101085.78
2022-10-07T16:02:41.914Z,101098.97
2022-10-07T16:05:12.443Z,101094.63
2022-10-07T16:07:38.936Z,101095.22
2022-10-07T16:10:10.726Z,101079.22
2022-10-07T16:12:39.280Z,101085.88
2022-10-07T16:15:06.594Z,101025.69
2022-10-07T16:17:33.195Z,101050.91
2022-10-07T16:20:00.001Z,101105.28
2022-10-07T16:22:26.603Z,101084.09
2022-10-07T16:24:55.449Z,101061.47
2022-10-07T16:27:42.022Z,101100.38
2022-10-07T16:30:27.641Z,101049.56
2022-10-07T16:32:56.635Z,101080.19
2022-10-07T16:35:23.281Z,101092.28
2022-10-07T16:37:52.509Z,101057.50
2022-10-07T16:40:19.328Z,101105.56
2022-10-07T16:42:46.178Z,101045.09
2022-10-07T16:45:12.657Z,101066.69
2022-10-07T16:47:39.134Z,101060.75
2022-10-07T16:50:10.800Z,101091.78
2022-10-07T16:52:37.551Z,101095.97
2022-10-07T16:55:04.737Z,101036.06
2022-10-07T16:57:32.147Z,101092.34
2022-10-07T17:00:00.775Z,101086.00
2022-10-07T17:02:30.879Z,101093.13
2022-10-07T17:04:57.586Z,101087.03
2022-10-07T17:07:24.085Z,101095.88
2022-10-07T17:09:50.566Z,101070.78
2022-10-07T17:12:17.076Z,101095.22
2022-10-07T17:14:43.609Z,101088.28
2022-10-07T17:17:10.118Z,101085.28
2022-10-07T17:19:36.878Z,101083.97
2022-10-07T17:22:04.128Z,101089.09
2022-10-07T17:24:31.028Z,101082.50
2022-10-07T17:26:57.633Z,101069.00
2022-10-07T17:29:25.961Z,101058.59
2022-10-07T17:31:53.059Z,101089.00
2022-10-07T17:34:20.745Z,101034.59
2022-10-07T17:36:48.070Z,101084.44
2022-10-07T17:39:14.714Z,101079.09
2022-10-07T17:41:41.472Z,101079.00
2022-10-07T17:44:11.668Z,101083.06
2022-10-07T17:46:39.732Z,101083.78
2022-10-07T17:49:07.727Z,101087.97
2022-10-07T17:51:34.755Z,101071.34
2022-10-07T17:54:03.367Z,101080.50
2022-10-07T17:56:34.676Z,101069.84
2022-10-07T17:59:01.556Z,101071.44
2022-10-07T18:01:30.926Z,101082.19
2022-10-07T18:04:03.282Z,101054.13
2022-10-07T18:06:31.836Z,101074.38
2022-10-07T18:09:04.525Z,101085.47
2022-10-07T18:11:50.179Z,101075.66
2022-10-07T18:14:37.589Z,101079.25
2022-10-07T18:17:06.244Z,101078.22
2022-10-07T18:19:32.925Z,101081.31
2022-10-07T18:21:59.779Z,101072.84
2022-10-07T18:24:28.752Z,101062.41
2022-10-07T18:26:58.943Z,101073.06
2022-10-07T18:29:26.770Z,101065.91
2022-10-07T18:31:54.171Z,101064.13
2022-10-07T18:34:22.971Z,101024.63
2022-10-07T18:36:55.211Z,101057.41
2022-10-07T18:39:23.220Z,101063.63
2022-10-07T18:41:49.752Z,101062.50
2022-10-07T18:44:16.236Z,101046.91
2022-10-07T18:46:42.840Z,101061.31
2022-10-07T18:49:10.967Z,101057.16
2022-10-07T18:51:37.566Z,101052.13
2022-10-07T18:54:04.228Z,101037.19
2022-10-07T18:56:30.785Z,101023.81
2022-10-07T18:59:01.414Z,101031.19
2022-10-07T19:01:30.179Z,101061.84
2022-10-07T19:03:57.575Z,101043.88
2022-10-07T19:06:25.480Z,101042.66
2022-10-07T19:09:00.233Z,101045.72
2022-10-07T19:11:28.075Z,101029.56
2022-10-07T19:13:58.053Z,101049.41
2022-10-07T19:16:24.651Z,101042.91
2022-10-07T19:18:53.248Z,101046.84
2022-10-07T19:21:20.247Z,101049.94
2022-10-07T19:23:48.278Z,101014.03
2022-10-07T19:26:21.600Z,101038.84
2022-10-07T19:28:49.828Z,101033.31
2022-10-07T19:31:25.803Z,101021.56
2022-10-07T19:33:56.675Z,101059.50
2022-10-07T19:36:26.350Z,101055.03
2022-10-07T19:38:53.445Z,101054.97
2022-10-07T19:41:28.573Z,101048.56
2022-10-07T19:43:55.793Z,101059.72
2022-10-07T19:46:24.936Z,101053.34
2022-10-07T19:48:52.481Z,101036.59
2022-10-07T19:51:20.025Z,101028.84
2022-10-07T19:53:47.457Z,101058.00
2022-10-07T19:56:22.748Z,101025.88
2022-10-07T19:58:54.679Z,101030.34
2022-10-07T20:01:26.153Z,101008.13
2022-10-07T20:04:06.949Z,101030.25
2022-10-07T20:06:36.467Z,101044.06
2022-10-07T20:09:05.507Z,101037.31
2022-10-07T20:11:32.721Z,101037.75
2022-10-07T20:13:59.922Z,100984.03
2022-10-07T20:16:31.406Z,101036.09
2022-10-07T20:19:01.024Z,101018.91
2022-10-07T20:21:28.495Z,101014.66
2022-10-07T20:23:55.689Z,101033.91
2022-10-07T20:26:26.898Z,101031.34
2022-10-07T20:28:55.307Z,101035.53
2022-10-07T20:31:23.885Z,101039.09
2022-10-07T20:33:52.410Z,101040.50
2022-10-07T20:36:21.990Z,101051.06
2022-10-07T20:39:12.543Z,101036.50
2022-10-07T20:41:57.562Z,101007.69
2022-10-07T20:44:24.156Z,101029.34
2022-10-07T20:46:51.891Z,101021.78
2022-10-07T20:49:22.350Z,101028.41
2022-10-07T20:51:56.983Z,101008.69
2022-10-07T20:54:26.074Z,101031.22
2022-10-07T20:56:53.712Z,101000.50
2022-10-07T20:59:21.791Z,100974.63
2022-10-07T21:01:48.387Z,101003.94
2022-10-07T21:04:15.841Z,100994.78
2022-10-07T21:06:42.932Z,101022.78
2022-10-07T21:09:10.423Z,101027.19
2022-10-07T21:11:38.081Z,101010.28
2022-10-07T21:14:04.824Z,101019.53
2022-10-07T21:16:32.610Z,101012.56
2022-10-07T21:18:59.473Z,101004.97
2022-10-07T21:21:26.685Z,100975.16
2022-10-07T21:23:53.238Z,101019.63
2022-10-07T21:26:20.584Z,101016.94
2022-10-07T21:28:48.398Z,100982.34
2022-10-07T21:31:17.670Z,101016.81
2022-10-07T21:33:46.596Z,100979.78
2022-10-07T21:36:17.990Z,101021.91
2022-10-07T21:38:45.526Z,100951.81
2022-10-07T21:41:16.762Z,101004.78
2022-10-07T21:43:44.078Z,100992.31
2022-10-07T21:46:10.786Z,100950.63
2022-10-07T21:48:37.271Z,101003.22
2022-10-07T21:51:09.331Z,101006.63
2022-10-07T21:53:36.513Z,100964.13
2022-10-07T21:56:04.879Z,100990.88
2022-10-07T21:58:32.876Z,101003.28
2022-10-07T22:01:04.240Z,100980.19
2022-10-07T22:03:31.016Z,100999.59
2022-10-07T22:06:05.460Z,101003.97
2022-10-07T22:08:36.305Z,101001.84
2022-10-07T22:11:11.345Z,100985.00
2022-10-07T22:13:46.193Z,100988.78
2022-10-07T22:16:16.728Z,100943.25
2022-10-07T22:18:45.608Z,100984.44
2022-10-07T22:21:24.544Z,100961.50
2022-10-07T22:23:53.292Z,100968.84
2022-10-07T22:26:27.941Z,100985.84
2022-10-07T22:28:54.549Z,100987.28
2022-10-07T22:31:21.413Z,100976.28
2022-10-07T22:33:54.343Z,100971.25
2022-10-07T22:36:21.980Z,100929.75
2022-10-07T22:38:49.150Z,100969.81
2022-10-07T22:41:16.778Z,100820.78
2022-10-07T22:43:45.140Z,100943.97
2022-10-07T22:46:14.199Z,100970.00
2022-10-07T22:48:43.168Z,100940.97
2022-10-07T22:51:11.864Z,100926.50
2022-10-07T22:53:40.922Z,100960.41
2022-10-07T22:56:11.325Z,100930.25
2022-10-07T22:58:39.695Z,100947.00
2022-10-07T23:01:09.278Z,100944.50
2022-10-07T23:03:38.443Z,100933.06
2022-10-07T23:06:06.666Z,100952.91
2022-10-07T23:08:37.091Z,100911.72
2022-10-07T23:11:04.247Z,100940.25
2022-10-07T23:13:36.084Z,100940.25
2022-10-07T23:16:06.653Z,100932.81
2022-10-07T23:18:33.644Z,100903.72
2022-10-07T23:21:08.637Z,100937.94
2022-10-07T23:23:36.740Z,100927.47
2022-10-07T23:26:05.365Z,100899.59
2022-10-07T23:28:34.456Z,100919.75
2022-10-07T23:31:10.401Z,100923.13
2022-10-07T23:33:37.406Z,100894.84
2022-10-07T23:36:05.718Z,100939.69
2022-10-07T23:38:33.470Z,100924.16
2022-10-07T23:41:00.831Z,100881.63
2022-10-07T23:43:27.866Z,100926.00
2022-10-07T23:45:54.491Z,100921.41
2022-10-07T23:48:20.936Z,100914.66
2022-10-07T23:50:48.819Z,100926.81
2022-10-07T23:53:16.415Z,100873.88
2022-10-07T23:55:47.767Z,100920.72
2022-10-07T23:58:15.520Z,100872.38
